Time;durP1;ratioP1;P1;durP2;ratioP2;P2;SDS_P1;SDS_P2;PMS_P1;PMS_P2;Temp;Humidity;BMP_temperature;BMP_pressure;BME280_temperature;BME280_humidity;BME280_pressure;Samples;Min_cycle;Max_cycle;Signal;HPM_P1;HPM_P2
2022/12/16 00:01:52;;;;;;;;;;;;;;;-4.49;85.31;99443.63;5081677;28;19935;-66
2022/12/16 00:04:18;;;;;;;;;;;;;;;-4.45;85.17;99436.88;5084739;28;19974;-66
2022/12/16 00:06:45;;;;;;;;;;;;;;;-4.42;84.94;99427.69;5082411;28;20393;-66
2022/12/16 00:09:10;;;;;;;;;;;;;;;-4.40;84.98;99425.66;5065234;28;20027;-66
2022/12/16 00:11:36;;;;;;;;;;;;;;;-4.39;85.00;99410.44;5081892;28;20030;-66
2022/12/16 00:14:02;;;;;;;;;;;;;;;-4.39;84.95;99418.44;5086402;28;19974;-67
2022/12/16 00:16:27;;;;;;;;;;;;;;;-4.39;84.99;99410.44;5062804;28;20039;-68
2022/12/16 00:18:53;;;;;;;;;;;;;;;-4.40;85.02;99409.63;5082164;28;20017;-68
2022/12/16 00:21:19;;;;;;;;;;;;;;;-4.37;84.79;99403.91;5082869;28;19934;-68
2022/12/16 00:23:46;;;;;;;;;;;;;;;-4.34;84.49;99421.41;5064540;28;19928;-68
2022/12/16 00:26:12;;;;;;;;;;;;;;;-4.34;84.55;99397.38;5070706;28;19973;-67
2022/12/16 00:28:38;;;;;;;;;;;;;;;-4.35;84.53;99395.72;5067799;28;19928;-67
2022/12/16 00:31:04;;;;;;;;;;;;;;;-4.32;84.87;99403.34;5085246;28;19928;-68
2022/12/16 00:33:30;;;;;;;;;;;;;;;-4.31;84.78;99397.81;5065921;28;19928;-68
2022/12/16 00:35:56;;;;;;;;;;;;;;;-4.26;84.91;99391.91;5067225;28;20406;-67
2022/12/16 00:38:22;;;;;;;;;;;;;;;-4.23;84.55;99404.06;5066095;28;20359;-69
2022/12/16 00:40:49;;;;;;;;;;;;;;;-4.25;84.55;99395.44;5066030;28;20022;-68
2022/12/16 00:43:15;;;;;;;;;;;;;;;-4.23;84.73;99391.53;5085715;28;19954;-66
2022/12/16 00:45:41;;;;;;;;;;;;;;;-4.21;85.02;99394.03;5086195;28;19961;-66
2022/12/16 00:48:06;;;;;;;;;;;;;;;-4.18;85.02;99388.31;5084503;28;20434;-66
2022/12/16 00:50:32;;;;;;;;;;;;;;;-4.17;85.05;99395.31;5084797;28;19933;-66
2022/12/16 00:52:58;;;;;;;;;;;;;;;-4.17;85.08;99387.28;5087361;28;19928;-66
2022/12/16 00:55:24;;;;;;;;;;;;;;;-4.16;84.97;99386.28;5068706;28;20460;-66
2022/12/16 00:57:51;;;;;;;;;;;;;;;-4.12;84.93;99390.25;5085111;28;20332;-66
2022/12/16 01:00:17;;;;;;;;;;;;;;;-4.09;85.22;99387.19;5066150;28;19935;-66
2022/12/16 01:02:44;;;;;;;;;;;;;;;-4.07;84.94;99381.63;5084151;28;20212;-66
2022/12/16 01:05:11;;;;;;;;;;;;;;;-4.06;84.92;99389.47;5067479;28;19973;-66
2022/12/16 01:07:36;;;;;;;;;;;;;;;-4.03;84.96;99391.75;5086210;28;19936;-66
2022/12/16 01:10:03;;;;;;;;;;;;;;;-4.02;85.01;99397.94;5066700;28;20383;-66
2022/12/16 01:12:29;;;;;;;;;;;;;;;-4.02;85.26;99396.09;5066397;28;19928;-66
2022/12/16 01:14:56;;;;;;;;;;;;;;;-3.98;85.32;99404.56;5084668;28;19955;-66
2022/12/16 01:17:24;;;;;;;;;;;;;;;-3.97;85.36;99410.75;5085128;28;19927;-67
2022/12/16 01:19:50;;;;;;;;;;;;;;;-3.98;85.30;99401.88;5084617;28;20395;-66
2022/12/16 01:22:16;;;;;;;;;;;;;;;-3.96;85.68;99417.75;5083589;28;19971;-66
2022/12/16 01:24:42;;;;;;;;;;;;;;;-3.96;85.63;99407.06;5066447;28;19965;-66
2022/12/16 01:27:11;;;;;;;;;;;;;;;-3.95;85.62;99406.84;5084069;28;19946;-66
2022/12/16 01:29:36;;;;;;;;;;;;;;;-3.93;85.66;99410.16;5066837;28;20349;-66
2022/12/16 01:32:05;;;;;;;;;;;;;;;-3.92;85.51;99394.97;5084185;28;19928;-66
2022/12/16 01:34:30;;;;;;;;;;;;;;;-3.90;85.64;99409.78;5083489;28;19971;-66
2022/12/16 01:36:56;;;;;;;;;;;;;;;-3.88;85.49;99399.75;5086608;28;20013;-66
2022/12/16 01:39:23;;;;;;;;;;;;;;;-3.89;85.48;99424.81;5067131;28;19967;-66
2022/12/16 01:41:49;;;;;;;;;;;;;;;-3.88;85.67;99405.09;5086874;28;20395;-68
2022/12/16 01:44:16;;;;;;;;;;;;;;;-3.85;85.60;99403.84;5082001;28;19973;-67
2022/12/16 01:46:43;;;;;;;;;;;;;;;-3.81;85.55;99397.13;5085044;28;20114;-68
2022/12/16 01:49:16;;;;;;;;;;;;;;;-3.89;85.65;99390.06;5083106;28;19951;-68
2022/12/16 01:51:43;;;;;;;;;;;;;;;-3.74;85.75;99422.06;5048889;28;19934;-67
2022/12/16 01:54:10;;;;;;;;;;;;;;;-3.71;85.69;99402.16;5047657;28;19977;-68
2022/12/16 01:56:38;;;;;;;;;;;;;;;-3.70;85.58;99412.63;5050199;28;19955;-68
2022/12/16 01:59:04;;;;;;;;;;;;;;;-3.67;85.79;99410.59;5063055;28;19927;-68
2022/12/16 02:01:30;;;;;;;;;;;;;;;-3.67;85.88;99407.94;5066594;28;19934;-68
2022/12/16 02:03:57;;;;;;;;;;;;;;;-3.66;86.08;99407.75;5083647;28;20224;-67
2022/12/16 02:06:24;;;;;;;;;;;;;;;-3.63;86.03;99430.59;5081691;28;19928;-68
2022/12/16 02:08:54;;;;;;;;;;;;;;;-3.62;86.00;99417.03;5083045;28;19928;-68
2022/12/16 02:11:35;;;;;;;;;;;;;;;-3.57;86.06;99405.78;5083557;28;19928;-68
2022/12/16 02:14:08;;;;;;;;;;;;;;;-3.54;85.98;99417.94;5094076;28;19973;-67
2022/12/16 02:16:38;;;;;;;;;;;;;;;-3.56;85.85;99407.44;5073942;28;20018;-68
2022/12/16 02:19:10;;;;;;;;;;;;;;;-3.54;86.01;99418.75;5083926;28;19968;-67
2022/12/16 02:21:47;;;;;;;;;;;;;;;-3.53;85.85;99420.41;5083605;28;19928;-67
2022/12/16 02:24:22;;;;;;;;;;;;;;;-3.49;85.81;99410.16;5084650;28;19974;-68
2022/12/16 02:27:11;;;;;;;;;;;;;;;-3.45;85.82;99422.13;5045676;28;19932;-68
2022/12/16 02:29:51;;;;;;;;;;;;;;;-3.44;86.14;99423.78;5063034;28;20016;-68
2022/12/16 02:32:22;;;;;;;;;;;;;;;-3.48;86.05;99412.66;5062184;28;19928;-67
2022/12/16 02:34:52;;;;;;;;;;;;;;;-3.48;86.48;99422.50;5045098;28;20116;-68
2022/12/16 02:37:23;;;;;;;;;;;;;;;-3.47;86.85;99416.13;5082947;28;20415;-67
2022/12/16 02:39:51;;;;;;;;;;;;;;;-3.46;86.71;99423.97;5082691;28;19934;-68
2022/12/16 02:42:20;;;;;;;;;;;;;;;-3.44;86.76;99429.97;5081965;28;20374;-68
2022/12/16 02:44:52;;;;;;;;;;;;;;;-3.44;86.66;99429.13;5082935;28;19928;-68
2022/12/16 02:47:19;;;;;;;;;;;;;;;-3.45;86.53;99419.44;5063395;28;19959;-68
2022/12/16 02:49:46;;;;;;;;;;;;;;;-3.44;86.37;99419.25;5080558;28;20030;-68
2022/12/16 02:52:13;;;;;;;;;;;;;;;-3.41;86.58;99415.38;5082624;28;19981;-68
2022/12/16 02:54:39;;;;;;;;;;;;;;;-3.37;86.40;99413.13;5083266;28;19967;-68
2022/12/16 02:57:12;;;;;;;;;;;;;;;-3.35;86.46;99417.28;5064418;28;19963;-68
2022/12/16 02:59:42;;;;;;;;;;;;;;;-3.35;86.08;99427.16;5082516;28;20031;-67
2022/12/16 03:02:11;;;;;;;;;;;;;;;-3.33;85.96;99425.94;5083127;28;19928;-66
2022/12/16 03:04:40;;;;;;;;;;;;;;;-3.31;86.29;99421.22;5081066;28;19928;-66
2022/12/16 03:07:08;;;;;;;;;;;;;;;-3.28;86.30;99428.03;5083222;28;20203;-66
2022/12/16 03:09:36;;;;;;;;;;;;;;;-3.29;86.39;99429.06;5081744;28;19974;-66
2022/12/16 03:12:05;;;;;;;;;;;;;;;-3.30;86.40;99424.72;5081502;28;20385;-66
2022/12/16 03:14:32;;;;;;;;;;;;;;;-3.31;86.34;99426.56;5063656;28;19927;-66
2022/12/16 03:16:58;;;;;;;;;;;;;;;-3.27;86.23;99435.03;5082443;28;19928;-66
2022/12/16 03:19:25;;;;;;;;;;;;;;;-3.28;86.38;99436.91;5081153;28;20542;-70
2022/12/16 03:21:54;;;;;;;;;;;;;;;-3.29;86.47;99423.69;5062932;28;20031;-67
2022/12/16 03:24:20;;;;;;;;;;;;;;;-3.29;86.60;99432.53;5081920;28;20038;-66
2022/12/16 03:26:50;;;;;;;;;;;;;;;-3.29;86.56;99442.41;5081334;28;20030;-67
2022/12/16 03:29:21;;;;;;;;;;;;;;;-3.26;86.78;99433.19;5083060;28;19936;-66
2022/12/16 03:31:49;;;;;;;;;;;;;;;-3.23;86.68;99444.31;5081731;28;20087;-67
2022/12/16 03:34:20;;;;;;;;;;;;;;;-3.21;86.62;99438.78;5082001;28;19928;-67
2022/12/16 03:36:50;;;;;;;;;;;;;;;-3.22;86.77;99437.13;5081559;28;19928;-66
2022/12/16 03:39:19;;;;;;;;;;;;;;;-3.22;86.75;99450.50;5080204;28;20392;-65
2022/12/16 03:41:46;;;;;;;;;;;;;;;-3.22;87.02;99445.16;5082343;28;20298;-66
2022/12/16 03:44:12;;;;;;;;;;;;;;;-3.19;87.15;99468.84;5081384;28;19963;-66
2022/12/16 03:46:38;;;;;;;;;;;;;;;-3.21;86.84;99462.84;5079791;28;20045;-65
2022/12/16 03:49:03;;;;;;;;;;;;;;;-3.25;87.19;99467.75;5081510;28;19935;-66
2022/12/16 03:51:29;;;;;;;;;;;;;;;-3.25;87.42;99456.25;5081272;28;20498;-66
2022/12/16 03:53:55;;;;;;;;;;;;;;;-3.23;87.24;99459.56;5082022;28;19935;-66
2022/12/16 03:56:22;;;;;;;;;;;;;;;-3.23;87.21;99460.38;5081932;28;19966;-68
2022/12/16 03:58:47;;;;;;;;;;;;;;;-3.22;87.46;99459.34;5046201;28;19928;-68
2022/12/16 04:01:13;;;;;;;;;;;;;;;-3.20;87.08;99468.03;5065989;28;19935;-67
2022/12/16 04:03:39;;;;;;;;;;;;;;;-3.19;87.22;99474.19;5065719;28;19928;-68
2022/12/16 04:06:05;;;;;;;;;;;;;;;-3.21;87.35;99476.22;5085896;28;19928;-67
2022/12/16 04:08:31;;;;;;;;;;;;;;;-3.23;87.50;99481.75;5084200;28;19936;-68
2022/12/16 04:25:04;;;;;;;;;;;;;;;-3.11;87.51;99508.00;5085116;28;20564;-68
2022/12/16 04:27:30;;;;;;;;;;;;;;;-3.10;87.48;99520.34;5068607;28;19948;-68
